sensor_id;sensor_type;location;lat;lon;timestamp;temperature;humidity
16523;DHT22;19889;52.546;13.348;2024-02-21T00:00:27;9.60;99.90
16523;DHT22;19889;52.546;13.348;2024-02-21T00:02:54;9.60;99.90
16523;DHT22;19889;52.546;13.348;2024-02-21T00:05:25;9.60;99.90
16523;DHT22;19889;52.546;13.348;2024-02-21T00:07:52;9.60;99.90
16523;DHT22;19889;52.546;13.348;2024-02-21T00:10:19;9.60;99.90
16523;DHT22;19889;52.546;13.348;2024-02-21T00:12:46;9.60;99.90
16523;DHT22;19889;52.546;13.348;2024-02-21T00:15:13;9.60;99.90
16523;DHT22;19889;52.546;13.348;2024-02-21T00:17:40;9.60;99.90
16523;DHT22;19889;52.546;13.348;2024-02-21T00:20:08;9.60;99.90
16523;DHT22;19889;52.546;13.348;2024-02-21T00:22:36;9.60;99.90
16523;DHT22;19889;52.546;13.348;2024-02-21T00:25:04;9.60;99.90
16523;DHT22;19889;52.546;13.348;2024-02-21T00:27:32;9.60;99.90
16523;DHT22;19889;52.546;13.348;2024-02-21T00:29:59;9.60;99.90
16523;DHT22;19889;52.546;13.348;2024-02-21T00:32:26;9.50;99.90
16523;DHT22;19889;52.546;13.348;2024-02-21T00:34:53;9.50;99.90
16523;DHT22;19889;52.546;13.348;2024-02-21T00:37:21;9.50;99.90
16523;DHT22;19889;52.546;13.348;2024-02-21T00:39:49;9.50;99.90
16523;DHT22;19889;52.546;13.348;2024-02-21T00:42:16;9.50;99.90
16523;DHT22;19889;52.546;13.348;2024-02-21T00:44:43;9.50;99.90
16523;DHT22;19889;52.546;13.348;2024-02-21T00:47:10;9.50;99.90
16523;DHT22;19889;52.546;13.348;2024-02-21T00:49:38;9.40;99.90
16523;DHT22;19889;52.546;13.348;2024-02-21T00:52:05;9.40;99.90
16523;DHT22;19889;52.546;13.348;2024-02-21T00:54:34;9.40;99.90
16523;DHT22;19889;52.546;13.348;2024-02-21T00:57:03;9.40;99.90
16523;DHT22;19889;52.546;13.348;2024-02-21T00:59:30;9.40;99.90
16523;DHT22;19889;52.546;13.348;2024-02-21T01:01:58;9.40;99.90
16523;DHT22;19889;52.546;13.348;2024-02-21T01:04:25;9.30;99.90
16523;DHT22;19889;52.546;13.348;2024-02-21T01:06:52;9.30;99.90
16523;DHT22;19889;52.546;13.348;2024-02-21T01:09:19;9.30;99.90
16523;DHT22;19889;52.546;13.348;2024-02-21T01:11:46;9.30;99.90
16523;DHT22;19889;52.546;13.348;2024-02-21T01:14:15;9.30;99.90
16523;DHT22;19889;52.546;13.348;2024-02-21T01:16:42;9.30;99.90
16523;DHT22;19889;52.546;13.348;2024-02-21T01:19:09;9.30;99.90
16523;DHT22;19889;52.546;13.348;2024-02-21T01:21:36;9.30;99.90
16523;DHT22;19889;52.546;13.348;2024-02-21T01:24:04;9.30;99.90
16523;DHT22;19889;52.546;13.348;2024-02-21T01:26:31;9.30;99.90
16523;DHT22;19889;52.546;13.348;2024-02-21T01:28:58;9.30;99.90
16523;DHT22;19889;52.546;13.348;2024-02-21T01:31:27;9.30;99.90
16523;DHT22;19889;52.546;13.348;2024-02-21T01:33:54;9.30;99.90
16523;DHT22;19889;52.546;13.348;2024-02-21T01:36:21;9.30;99.90
16523;DHT22;19889;52.546;13.348;2024-02-21T01:38:49;9.30;99.90
16523;DHT22;19889;52.546;13.348;2024-02-21T01:41:16;9.30;99.90
16523;DHT22;19889;52.546;13.348;2024-02-21T01:43:43;9.30;99.90
16523;DHT22;19889;52.546;13.348;2024-02-21T01:46:10;9.40;99.90
16523;DHT22;19889;52.546;13.348;2024-02-21T01:48:39;9.40;99.90
16523;DHT22;19889;52.546;13.348;2024-02-21T01:51:06;9.40;99.90
16523;DHT22;19889;52.546;13.348;2024-02-21T01:53:36;9.50;99.90
16523;DHT22;19889;52.546;13.348;2024-02-21T01:56:05;9.50;99.90
16523;DHT22;19889;52.546;13.348;2024-02-21T01:58:34;9.50;99.90
16523;DHT22;19889;52.546;13.348;2024-02-21T02:01:03;9.50;99.90
16523;DHT22;19889;52.546;13.348;2024-02-21T02:03:31;9.50;99.90
16523;DHT22;19889;52.546;13.348;2024-02-21T02:06:00;9.50;99.90
16523;DHT22;19889;52.546;13.348;2024-02-21T02:08:27;9.50;99.90
16523;DHT22;19889;52.546;13.348;2024-02-21T02:10:54;9.60;99.90
16523;DHT22;19889;52.546;13.348;2024-02-21T02:13:21;9.60;99.90
16523;DHT22;19889;52.546;13.348;2024-02-21T02:15:49;9.50;99.90
16523;DHT22;19889;52.546;13.348;2024-02-21T02:18:19;9.50;99.90
16523;DHT22;19889;52.546;13.348;2024-02-21T02:20:47;9.50;99.90
16523;DHT22;19889;52.546;13.348;2024-02-21T02:23:20;9.60;99.90
16523;DHT22;19889;52.546;13.348;2024-02-21T02:25:48;9.60;99.90
16523;DHT22;19889;52.546;13.348;2024-02-21T02:28:18;9.60;99.90
16523;DHT22;19889;52.546;13.348;2024-02-21T02:30:45;9.60;99.90
16523;DHT22;19889;52.546;13.348;2024-02-21T02:33:12;9.70;99.90
16523;DHT22;19889;52.546;13.348;2024-02-21T02:35:39;9.60;99.90
16523;DHT22;19889;52.546;13.348;2024-02-21T02:38:06;9.70;99.90
16523;DHT22;19889;52.546;13.348;2024-02-21T02:40:36;9.70;99.90
16523;DHT22;19889;52.546;13.348;2024-02-21T02:43:04;9.70;99.90
16523;DHT22;19889;52.546;13.348;2024-02-21T02:45:32;9.70;99.90
16523;DHT22;19889;52.546;13.348;2024-02-21T02:47:59;9.70;99.90
16523;DHT22;19889;52.546;13.348;2024-02-21T02:50:27;9.70;99.90
16523;DHT22;19889;52.546;13.348;2024-02-21T02:52:54;9.60;99.90
16523;DHT22;19889;52.546;13.348;2024-02-21T02:55:22;9.60;99.90
16523;DHT22;19889;52.546;13.348;2024-02-21T02:57:50;9.60;99.90
16523;DHT22;19889;52.546;13.348;2024-02-21T03:00:18;9.60;99.90
16523;DHT22;19889;52.546;13.348;2024-02-21T03:02:46;9.60;99.90
16523;DHT22;19889;52.546;13.348;2024-02-21T03:05:16;9.50;99.90
16523;DHT22;19889;52.546;13.348;2024-02-21T03:07:44;9.50;99.90
16523;DHT22;19889;52.546;13.348;2024-02-21T03:10:11;9.50;99.90
16523;DHT22;19889;52.546;13.348;2024-02-21T03:12:39;9.50;99.90
16523;DHT22;19889;52.546;13.348;2024-02-21T03:15:09;9.50;99.90
16523;DHT22;19889;52.546;13.348;2024-02-21T03:17:36;9.40;99.90
16523;DHT22;19889;52.546;13.348;2024-02-21T03:20:05;9.40;99.90
16523;DHT22;19889;52.546;13.348;2024-02-21T03:22:35;9.30;99.90
16523;DHT22;19889;52.546;13.348;2024-02-21T03:25:02;9.30;99.90
16523;DHT22;19889;52.546;13.348;2024-02-21T03:27:30;9.30;99.90
16523;DHT22;19889;52.546;13.348;2024-02-21T03:29:57;9.30;99.90
16523;DHT22;19889;52.546;13.348;2024-02-21T03:32:26;9.30;99.90
16523;DHT22;19889;52.546;13.348;2024-02-21T03:34:54;9.30;99.90
16523;DHT22;19889;52.546;13.348;2024-02-21T03:37:21;9.30;99.90
16523;DHT22;19889;52.546;13.348;2024-02-21T03:39:48;9.30;99.90
16523;DHT22;19889;52.546;13.348;2024-02-21T03:42:16;9.30;99.90
16523;DHT22;19889;52.546;13.348;2024-02-21T03:44:43;9.20;99.90
16523;DHT22;19889;52.546;13.348;2024-02-21T03:47:10;9.10;99.90
16523;DHT22;19889;52.546;13.348;2024-02-21T03:49:39;9.10;99.90
16523;DHT22;19889;52.546;13.348;2024-02-21T03:52:06;9.00;99.90
16523;DHT22;19889;52.546;13.348;2024-02-21T03:54:34;9.00;99.90
16523;DHT22;19889;52.546;13.348;2024-02-21T03:57:02;9.00;99.90
16523;DHT22;19889;52.546;13.348;2024-02-21T03:59:29;8.90;99.90
16523;DHT22;19889;52.546;13.348;2024-02-21T04:01:57;8.90;99.90
16523;DHT22;19889;52.546;13.348;2024-02-21T04:04:24;8.90;99.90
16523;DHT22;19889;52.546;13.348;2024-02-21T04:06:53;8.90;99.90
16523;DHT22;19889;52.546;13.348;2024-02-21T04:09:20;8.90;99.90
16523;DHT22;19889;52.546;13.348;2024-02-21T04:11:48;8.90;99.90
16523;DHT22;19889;52.546;13.348;2024-02-21T04:14:15;8.90;99.90
16523;DHT22;19889;52.546;13.348;2024-02-21T04:16:42;8.90;99.90
16523;DHT22;19889;52.546;13.348;2024-02-21T04:19:09;8.90;99.90
16523;DHT22;19889;52.546;13.348;2024-02-21T04:21:37;8.90;99.90
16523;DHT22;19889;52.546;13.348;2024-02-21T04:24:06;8.80;99.90
16523;DHT22;19889;52.546;13.348;2024-02-21T04:26:33;8.80;99.90
16523;DHT22;19889;52.546;13.348;2024-02-21T04:29:00;8.80;99.90
16523;DHT22;19889;52.546;13.348;2024-02-21T04:31:28;8.80;99.90
16523;DHT22;19889;52.546;13.348;2024-02-21T04:33:56;8.80;99.90
16523;DHT22;19889;52.546;13.348;2024-02-21T04:36:23;8.80;99.90
16523;DHT22;19889;52.546;13.348;2024-02-21T04:38:50;8.80;99.90
16523;DHT22;19889;52.546;13.348;2024-02-21T04:41:19;8.80;99.90
16523;DHT22;19889;52.546;13.348;2024-02-21T04:43:46;8.80;99.90
16523;DHT22;19889;52.546;13.348;2024-02-21T04:46:14;8.80;99.90
16523;DHT22;19889;52.546;13.348;2024-02-21T04:48:41;8.80;99.90
16523;DHT22;19889;52.546;13.348;2024-02-21T04:51:09;8.80;99.90
16523;DHT22;19889;52.546;13.348;2024-02-21T04:53:36;8.80;99.90
16523;DHT22;19889;52.546;13.348;2024-02-21T04:56:04;8.80;99.90
16523;DHT22;19889;52.546;13.348;2024-02-21T04:58:33;8.80;99.90
16523;DHT22;19889;52.546;13.348;2024-02-21T05:01:00;8.80;99.90
16523;DHT22;19889;52.546;13.348;2024-02-21T05:03:27;8.80;99.90
16523;DHT22;19889;52.546;13.348;2024-02-21T05:05:54;8.80;99.90
16523;DHT22;19889;52.546;13.348;2024-02-21T05:08:21;8.80;99.90
16523;DHT22;19889;52.546;13.348;2024-02-21T05:10:49;8.80;99.90
16523;DHT22;19889;52.546;13.348;2024-02-21T05:13:16;8.80;99.90
16523;DHT22;19889;52.546;13.348;2024-02-21T05:15:45;8.80;99.90
16523;DHT22;19889;52.546;13.348;2024-02-21T05:18:12;8.80;99.90
16523;DHT22;19889;52.546;13.348;2024-02-21T05:20:39;8.80;99.90
16523;DHT22;19889;52.546;13.348;2024-02-21T05:23:06;8.80;99.90
16523;DHT22;19889;52.546;13.348;2024-02-21T05:25:34;8.80;99.90
16523;DHT22;19889;52.546;13.348;2024-02-21T05:28:01;8.80;99.90
16523;DHT22;19889;52.546;13.348;2024-02-21T05:30:29;8.80;99.90
16523;DHT22;19889;52.546;13.348;2024-02-21T05:32:57;8.80;99.90
16523;DHT22;19889;52.546;13.348;2024-02-21T05:35:26;8.80;99.90
16523;DHT22;19889;52.546;13.348;2024-02-21T05:37:53;7.20;99.90
16523;DHT22;19889;52.546;13.348;2024-02-21T05:40:21;8.80;99.90
16523;DHT22;19889;52.546;13.348;2024-02-21T05:42:48;8.80;99.90
16523;DHT22;19889;52.546;13.348;2024-02-21T05:45:17;8.80;99.90
16523;DHT22;19889;52.546;13.348;2024-02-21T05:47:44;8.80;99.90
16523;DHT22;19889;52.546;13.348;2024-02-21T05:50:13;8.80;99.90
16523;DHT22;19889;52.546;13.348;2024-02-21T05:52:40;8.80;99.90
16523;DHT22;19889;52.546;13.348;2024-02-21T05:55:08;8.80;99.90
16523;DHT22;19889;52.546;13.348;2024-02-21T05:57:35;8.80;99.90
16523;DHT22;19889;52.546;13.348;2024-02-21T06:00:04;8.80;99.90
16523;DHT22;19889;52.546;13.348;2024-02-21T06:02:38;8.80;99.90
16523;DHT22;19889;52.546;13.348;2024-02-21T06:05:06;8.80;99.90
16523;DHT22;19889;52.546;13.348;2024-02-21T06:07:36;8.80;99.90
16523;DHT22;19889;52.546;13.348;2024-02-21T06:10:03;8.80;99.90
16523;DHT22;19889;52.546;13.348;2024-02-21T06:12:31;8.80;99.90
16523;DHT22;19889;52.546;13.348;2024-02-21T06:14:58;8.80;99.90
16523;DHT22;19889;52.546;13.348;2024-02-21T06:17:25;8.80;99.90
16523;DHT22;19889;52.546;13.348;2024-02-21T06:19:53;8.80;99.90
16523;DHT22;19889;52.546;13.348;2024-02-21T06:22:20;8.80;99.90
16523;DHT22;19889;52.546;13.348;2024-02-21T06:24:49;8.80;99.90
16523;DHT22;19889;52.546;13.348;2024-02-21T06:27:16;8.80;99.90
16523;DHT22;19889;52.546;13.348;2024-02-21T06:29:44;8.80;99.90
16523;DHT22;19889;52.546;13.348;2024-02-21T06:32:11;8.90;99.90
16523;DHT22;19889;52.546;13.348;2024-02-21T06:34:38;8.90;99.90
16523;DHT22;19889;52.546;13.348;2024-02-21T06:37:05;8.90;99.90
16523;DHT22;19889;52.546;13.348;2024-02-21T06:39:32;8.90;99.90
16523;DHT22;19889;52.546;13.348;2024-02-21T06:42:04;8.90;99.90
16523;DHT22;19889;52.546;13.348;2024-02-21T06:44:32;9.00;99.90
16523;DHT22;19889;52.546;13.348;2024-02-21T06:47:06;9.00;99.90
16523;DHT22;19889;52.546;13.348;2024-02-21T06:49:34;9.00;99.90
16523;DHT22;19889;52.546;13.348;2024-02-21T06:52:03;9.00;99.90
16523;DHT22;19889;52.546;13.348;2024-02-21T06:54:31;9.10;99.90
16523;DHT22;19889;52.546;13.348;2024-02-21T06:56:58;9.10;99.90
16523;DHT22;19889;52.546;13.348;2024-02-21T06:59:30;9.10;99.90
16523;DHT22;19889;52.546;13.348;2024-02-21T07:01:57;9.10;99.90
16523;DHT22;19889;52.546;13.348;2024-02-21T07:04:25;9.10;99.90
16523;DHT22;19889;52.546;13.348;2024-02-21T07:06:53;9.20;99.90
16523;DHT22;19889;52.546;13.348;2024-02-21T07:09:20;9.20;99.90
16523;DHT22;19889;52.546;13.348;2024-02-21T07:11:47;9.20;99.90
16523;DHT22;19889;52.546;13.348;2024-02-21T07:14:15;9.20;99.90
16523;DHT22;19889;52.546;13.348;2024-02-21T07:16:44;9.20;99.90
16523;DHT22;19889;52.546;13.348;2024-02-21T07:19:11;9.30;99.90
16523;DHT22;19889;52.546;13.348;2024-02-21T07:21:38;9.30;99.90
16523;DHT22;19889;52.546;13.348;2024-02-21T07:24:07;9.40;99.90
16523;DHT22;19889;52.546;13.348;2024-02-21T07:26:35;9.40;99.90
16523;DHT22;19889;52.546;13.348;2024-02-21T07:29:02;9.40;99.90
16523;DHT22;19889;52.546;13.348;2024-02-21T07:31:29;9.40;99.90
16523;DHT22;19889;52.546;13.348;2024-02-21T07:33:58;9.40;99.90
16523;DHT22;19889;52.546;13.348;2024-02-21T07:36:29;9.40;99.90
16523;DHT22;19889;52.546;13.348;2024-02-21T07:38:56;9.40;99.90
16523;DHT22;19889;52.546;13.348;2024-02-21T07:41:23;9.40;99.90
16523;DHT22;19889;52.546;13.348;2024-02-21T07:43:50;9.50;99.90
16523;DHT22;19889;52.546;13.348;2024-02-21T07:46:18;9.50;99.90
16523;DHT22;19889;52.546;13.348;2024-02-21T07:48:46;9.60;99.90
16523;DHT22;19889;52.546;13.348;2024-02-21T07:51:14;9.60;99.90
16523;DHT22;19889;52.546;13.348;2024-02-21T07:53:45;9.50;99.90
16523;DHT22;19889;52.546;13.348;2024-02-21T07:56:13;9.60;99.90
16523;DHT22;19889;52.546;13.348;2024-02-21T07:58:42;9.50;99.90
16523;DHT22;19889;52.546;13.348;2024-02-21T08:01:09;9.50;99.90
16523;DHT22;19889;52.546;13.348;2024-02-21T08:03:37;9.60;99.90
16523;DHT22;19889;52.546;13.348;2024-02-21T08:06:04;9.50;99.90
16523;DHT22;19889;52.546;13.348;2024-02-21T08:08:33;9.50;99.90
16523;DHT22;19889;52.546;13.348;2024-02-21T08:11:00;9.50;99.90
16523;DHT22;19889;52.546;13.348;2024-02-21T08:13:28;9.60;99.90
16523;DHT22;19889;52.546;13.348;2024-02-21T08:15:55;9.60;99.90
16523;DHT22;19889;52.546;13.348;2024-02-21T08:18:23;9.70;99.90
16523;DHT22;19889;52.546;13.348;2024-02-21T08:20:50;9.70;99.90
16523;DHT22;19889;52.546;13.348;2024-02-21T08:23:18;9.70;99.90
16523;DHT22;19889;52.546;13.348;2024-02-21T08:25:47;9.70;99.90
16523;DHT22;19889;52.546;13.348;2024-02-21T08:28:15;9.70;99.90
16523;DHT22;19889;52.546;13.348;2024-02-21T08:30:42;9.80;99.90
16523;DHT22;19889;52.546;13.348;2024-02-21T08:33:14;9.80;99.90
16523;DHT22;19889;52.546;13.348;2024-02-21T08:35:42;9.80;99.90
16523;DHT22;19889;52.546;13.348;2024-02-21T08:38:09;10.60;99.90
16523;DHT22;19889;52.546;13.348;2024-02-21T08:40:37;10.00;99.90
16523;DHT22;19889;52.546;13.348;2024-02-21T08:43:05;10.10;99.90
16523;DHT22;19889;52.546;13.348;2024-02-21T08:45:33;10.10;99.90
16523;DHT22;19889;52.546;13.348;2024-02-21T08:48:00;10.20;99.90
16523;DHT22;19889;52.546;13.348;2024-02-21T08:50:27;10.30;99.90
16523;DHT22;19889;52.546;13.348;2024-02-21T08:52:55;10.40;99.90
16523;DHT22;19889;52.546;13.348;2024-02-21T08:55:22;10.50;99.90
16523;DHT22;19889;52.546;13.348;2024-02-21T08:57:50;10.50;99.90
16523;DHT22;19889;52.546;13.348;2024-02-21T09:00:19;10.60;99.90
16523;DHT22;19889;52.546;13.348;2024-02-21T09:02:52;10.60;99.90
16523;DHT22;19889;52.546;13.348;2024-02-21T09:05:21;10.60;99.90
16523;DHT22;19889;52.546;13.348;2024-02-21T09:07:49;10.60;99.90
16523;DHT22;19889;52.546;13.348;2024-02-21T09:10:17;10.60;99.90
16523;DHT22;19889;52.546;13.348;2024-02-21T09:12:44;10.60;99.90
16523;DHT22;19889;52.546;13.348;2024-02-21T09:15:11;10.60;99.90
16523;DHT22;19889;52.546;13.348;2024-02-21T09:17:40;10.60;99.90
16523;DHT22;19889;52.546;13.348;2024-02-21T09:20:08;10.60;99.90
16523;DHT22;19889;52.546;13.348;2024-02-21T09:22:37;10.60;99.90
16523;DHT22;19889;52.546;13.348;2024-02-21T09:25:06;10.60;99.90
16523;DHT22;19889;52.546;13.348;2024-02-21T09:27:34;10.60;99.90
16523;DHT22;19889;52.546;13.348;2024-02-21T09:30:01;10.70;99.90
16523;DHT22;19889;52.546;13.348;2024-02-21T09:32:30;10.70;99.90
16523;DHT22;19889;52.546;13.348;2024-02-21T09:34:59;10.70;99.90
16523;DHT22;19889;52.546;13.348;2024-02-21T09:37:27;10.70;99.90
16523;DHT22;19889;52.546;13.348;2024-02-21T09:39:54;10.80;99.90
16523;DHT22;19889;52.546;13.348;2024-02-21T09:42:21;10.80;99.90
16523;DHT22;19889;52.546;13.348;2024-02-21T09:44:50;10.90;99.90
16523;DHT22;19889;52.546;13.348;2024-02-21T09:47:22;11.00;99.90
16523;DHT22;19889;52.546;13.348;2024-02-21T09:49:50;11.10;99.90
16523;DHT22;19889;52.546;13.348;2024-02-21T09:52:20;11.20;99.90
16523;DHT22;19889;52.546;13.348;2024-02-21T09:54:47;11.20;99.90
16523;DHT22;19889;52.546;13.348;2024-02-21T09:57:15;11.20;99.90
16523;DHT22;19889;52.546;13.348;2024-02-21T09:59:43;11.20;99.90
16523;DHT22;19889;52.546;13.348;2024-02-21T10:02:12;11.20;99.90
16523;DHT22;19889;52.546;13.348;2024-02-21T10:04:40;11.20;99.90
16523;DHT22;19889;52.546;13.348;2024-02-21T10:07:07;11.20;99.90
16523;DHT22;19889;52.546;13.348;2024-02-21T10:09:36;11.20;99.90
16523;DHT22;19889;52.546;13.348;2024-02-21T10:12:10;11.20;99.90
16523;DHT22;19889;52.546;13.348;2024-02-21T10:14:38;11.20;99.90
16523;DHT22;19889;52.546;13.348;2024-02-21T10:17:05;11.20;99.90
16523;DHT22;19889;52.546;13.348;2024-02-21T10:19:35;11.30;99.90
16523;DHT22;19889;52.546;13.348;2024-02-21T10:22:05;11.30;99.90
16523;DHT22;19889;52.546;13.348;2024-02-21T10:24:33;11.30;99.90
16523;DHT22;19889;52.546;13.348;2024-02-21T10:27:06;11.20;99.90
16523;DHT22;19889;52.546;13.348;2024-02-21T10:29:35;11.30;99.90
16523;DHT22;19889;52.546;13.348;2024-02-21T10:32:06;11.30;99.90
16523;DHT22;19889;52.546;13.348;2024-02-21T10:34:35;11.40;99.90
16523;DHT22;19889;52.546;13.348;2024-02-21T10:37:03;11.40;99.90
16523;DHT22;19889;52.546;13.348;2024-02-21T10:39:32;11.50;99.90
16523;DHT22;19889;52.546;13.348;2024-02-21T10:42:00;11.60;99.90
16523;DHT22;19889;52.546;13.348;2024-02-21T10:44:32;11.60;99.90
16523;DHT22;19889;52.546;13.348;2024-02-21T10:47:00;11.60;99.90
16523;DHT22;19889;52.546;13.348;2024-02-21T10:49:32;11.50;99.90
16523;DHT22;19889;52.546;13.348;2024-02-21T10:52:09;11.50;99.90
16523;DHT22;19889;52.546;13.348;2024-02-21T10:54:44;11.40;99.90
16523;DHT22;19889;52.546;13.348;2024-02-21T10:57:13;11.40;99.90
16523;DHT22;19889;52.546;13.348;2024-02-21T10:59:45;11.40;99.90
16523;DHT22;19889;52.546;13.348;2024-02-21T11:02:14;11.30;99.90
16523;DHT22;19889;52.546;13.348;2024-02-21T11:04:42;11.40;99.90
16523;DHT22;19889;52.546;13.348;2024-02-21T11:07:10;11.40;99.90
16523;DHT22;19889;52.546;13.348;2024-02-21T11:09:39;11.40;99.90
16523;DHT22;19889;52.546;13.348;2024-02-21T11:12:07;11.40;99.90
16523;DHT22;19889;52.546;13.348;2024-02-21T11:14:34;11.50;99.90
16523;DHT22;19889;52.546;13.348;2024-02-21T11:17:16;11.60;99.90
16523;DHT22;19889;52.546;13.348;2024-02-21T11:19:44;11.70;99.90
16523;DHT22;19889;52.546;13.348;2024-02-21T11:22:15;11.80;99.90
16523;DHT22;19889;52.546;13.348;2024-02-21T11:24:43;11.90;99.90
16523;DHT22;19889;52.546;13.348;2024-02-21T11:27:15;12.00;99.90
16523;DHT22;19889;52.546;13.348;2024-02-21T11:29:43;12.20;99.90
16523;DHT22;19889;52.546;13.348;2024-02-21T11:32:11;12.20;99.90
16523;DHT22;19889;52.546;13.348;2024-02-21T11:34:41;12.30;99.90
16523;DHT22;19889;52.546;13.348;2024-02-21T11:37:14;12.40;99.90
16523;DHT22;19889;52.546;13.348;2024-02-21T11:39:43;12.40;99.90
16523;DHT22;19889;52.546;13.348;2024-02-21T11:42:10;12.40;99.90
16523;DHT22;19889;52.546;13.348;2024-02-21T11:44:38;12.40;99.90
16523;DHT22;19889;52.546;13.348;2024-02-21T11:47:08;12.40;99.90
16523;DHT22;19889;52.546;13.348;2024-02-21T11:49:37;12.30;99.90
16523;DHT22;19889;52.546;13.348;2024-02-21T11:52:07;12.30;99.90
16523;DHT22;19889;52.546;13.348;2024-02-21T11:54:34;12.40;99.90
16523;DHT22;19889;52.546;13.348;2024-02-21T11:57:02;12.40;99.90
16523;DHT22;19889;52.546;13.348;2024-02-21T11:59:30;12.40;99.90
16523;DHT22;19889;52.546;13.348;2024-02-21T12:01:59;12.40;99.90
16523;DHT22;19889;52.546;13.348;2024-02-21T12:04:27;12.40;99.90
16523;DHT22;19889;52.546;13.348;2024-02-21T12:06:54;12.40;99.90
16523;DHT22;19889;52.546;13.348;2024-02-21T12:09:26;12.40;99.90
16523;DHT22;19889;52.546;13.348;2024-02-21T12:11:58;12.50;99.90
16523;DHT22;19889;52.546;13.348;2024-02-21T12:14:27;12.50;99.90
16523;DHT22;19889;52.546;13.348;2024-02-21T12:16:55;12.50;99.90
16523;DHT22;19889;52.546;13.348;2024-02-21T12:19:23;12.60;99.90
16523;DHT22;19889;52.546;13.348;2024-02-21T12:21:51;12.60;99.90
16523;DHT22;19889;52.546;13.348;2024-02-21T12:24:22;12.60;99.90
16523;DHT22;19889;52.546;13.348;2024-02-21T12:26:51;12.70;99.90
16523;DHT22;19889;52.546;13.348;2024-02-21T12:29:19;12.70;99.90
16523;DHT22;19889;52.546;13.348;2024-02-21T12:31:47;12.70;99.90
16523;DHT22;19889;52.546;13.348;2024-02-21T12:34:15;12.70;99.90
16523;DHT22;19889;52.546;13.348;2024-02-21T12:36:43;12.60;99.90
16523;DHT22;19889;52.546;13.348;2024-02-21T12:39:11;12.70;99.90
16523;DHT22;19889;52.546;13.348;2024-02-21T12:41:38;12.70;99.90
16523;DHT22;19889;52.546;13.348;2024-02-21T12:44:08;12.70;99.90
16523;DHT22;19889;52.546;13.348;2024-02-21T12:46:35;12.60;99.90
16523;DHT22;19889;52.546;13.348;2024-02-21T12:49:03;12.60;99.90
16523;DHT22;19889;52.546;13.348;2024-02-21T12:51:31;12.60;99.90
16523;DHT22;19889;52.546;13.348;2024-02-21T12:53:58;12.60;99.90
16523;DHT22;19889;52.546;13.348;2024-02-21T12:56:27;12.50;99.90
16523;DHT22;19889;52.546;13.348;2024-02-21T12:58:55;12.50;99.90
16523;DHT22;19889;52.546;13.348;2024-02-21T13:01:24;12.60;99.90
16523;DHT22;19889;52.546;13.348;2024-02-21T13:03:52;12.70;99.90
16523;DHT22;19889;52.546;13.348;2024-02-21T13:06:20;12.70;99.90
16523;DHT22;19889;52.546;13.348;2024-02-21T13:08:48;12.70;99.90
16523;DHT22;19889;52.546;13.348;2024-02-21T13:11:15;12.70;99.90
16523;DHT22;19889;52.546;13.348;2024-02-21T13:13:42;12.70;99.90
16523;DHT22;19889;52.546;13.348;2024-02-21T13:16:10;12.70;99.90
16523;DHT22;19889;52.546;13.348;2024-02-21T13:18:41;12.70;99.90
16523;DHT22;19889;52.546;13.348;2024-02-21T13:21:09;12.60;99.90
16523;DHT22;19889;52.546;13.348;2024-02-21T13:23:36;12.60;99.90
16523;DHT22;19889;52.546;13.348;2024-02-21T13:26:04;12.60;99.90
16523;DHT22;19889;52.546;13.348;2024-02-21T13:28:31;12.60;99.90
16523;DHT22;19889;52.546;13.348;2024-02-21T13:30:58;12.60;99.90
16523;DHT22;19889;52.546;13.348;2024-02-21T13:33:26;12.70;99.90
16523;DHT22;19889;52.546;13.348;2024-02-21T13:35:56;12.70;99.90
16523;DHT22;19889;52.546;13.348;2024-02-21T13:38:23;12.70;99.90
16523;DHT22;19889;52.546;13.348;2024-02-21T13:40:51;12.60;99.90
16523;DHT22;19889;52.546;13.348;2024-02-21T13:43:19;12.60;99.90
16523;DHT22;19889;52.546;13.348;2024-02-21T13:45:58;12.50;99.90
16523;DHT22;19889;52.546;13.348;2024-02-21T13:48:25;12.40;99.90
16523;DHT22;19889;52.546;13.348;2024-02-21T13:50:56;12.40;99.90
16523;DHT22;19889;52.546;13.348;2024-02-21T13:53:24;12.30;99.90
16523;DHT22;19889;52.546;13.348;2024-02-21T13:55:51;12.30;99.90
16523;DHT22;19889;52.546;13.348;2024-02-21T13:58:19;12.30;99.90
16523;DHT22;19889;52.546;13.348;2024-02-21T14:00:47;12.20;99.90
16523;DHT22;19889;52.546;13.348;2024-02-21T14:03:14;12.20;99.90
16523;DHT22;19889;52.546;13.348;2024-02-21T14:05:41;12.20;99.90
16523;DHT22;19889;52.546;13.348;2024-02-21T14:08:10;12.20;99.90
16523;DHT22;19889;52.546;13.348;2024-02-21T14:10:38;12.20;99.90
16523;DHT22;19889;52.546;13.348;2024-02-21T14:13:05;12.30;99.90
16523;DHT22;19889;52.546;13.348;2024-02-21T14:15:33;12.30;99.90
16523;DHT22;19889;52.546;13.348;2024-02-21T14:18:00;12.30;99.90
16523;DHT22;19889;52.546;13.348;2024-02-21T14:20:28;12.30;99.90
16523;DHT22;19889;52.546;13.348;2024-02-21T14:22:56;12.30;99.90
16523;DHT22;19889;52.546;13.348;2024-02-21T14:25:25;12.30;99.90
16523;DHT22;19889;52.546;13.348;2024-02-21T14:27:52;12.30;99.90
16523;DHT22;19889;52.546;13.348;2024-02-21T14:30:20;12.30;99.90
16523;DHT22;19889;52.546;13.348;2024-02-21T14:32:47;12.30;99.90
16523;DHT22;19889;52.546;13.348;2024-02-21T14:35:14;12.30;99.90
16523;DHT22;19889;52.546;13.348;2024-02-21T14:37:42;12.20;99.90
16523;DHT22;19889;52.546;13.348;2024-02-21T14:40:10;12.20;99.90
16523;DHT22;19889;52.546;13.348;2024-02-21T14:42:40;12.10;99.90
16523;DHT22;19889;52.546;13.348;2024-02-21T14:45:08;12.10;99.90
16523;DHT22;19889;52.546;13.348;2024-02-21T14:47:36;12.10;99.90
16523;DHT22;19889;52.546;13.348;2024-02-21T14:50:04;12.10;99.90
16523;DHT22;19889;52.546;13.348;2024-02-21T14:52:31;12.10;99.90
16523;DHT22;19889;52.546;13.348;2024-02-21T14:55:00;12.10;99.90
16523;DHT22;19889;52.546;13.348;2024-02-21T14:57:28;12.10;99.90
16523;DHT22;19889;52.546;13.348;2024-02-21T14:59:57;12.10;99.90
16523;DHT22;19889;52.546;13.348;2024-02-21T15:02:25;12.10;99.90
16523;DHT22;19889;52.546;13.348;2024-02-21T15:04:53;12.10;99.90
16523;DHT22;19889;52.546;13.348;2024-02-21T15:07:21;12.10;99.90
16523;DHT22;19889;52.546;13.348;2024-02-21T15:09:51;12.10;99.90
16523;DHT22;19889;52.546;13.348;2024-02-21T15:12:18;12.10;99.90
16523;DHT22;19889;52.546;13.348;2024-02-21T15:14:45;12.10;99.90
16523;DHT22;19889;52.546;13.348;2024-02-21T15:17:14;12.10;99.90
16523;DHT22;19889;52.546;13.348;2024-02-21T15:19:41;12.10;99.90
16523;DHT22;19889;52.546;13.348;2024-02-21T15:22:09;12.10;99.90
16523;DHT22;19889;52.546;13.348;2024-02-21T15:24:38;12.10;99.90
16523;DHT22;19889;52.546;13.348;2024-02-21T15:27:06;12.00;99.90
16523;DHT22;19889;52.546;13.348;2024-02-21T15:29:35;12.00;99.90